sensor_id;sensor_type;location;lat;lon;timestamp;P1;durP1;ratioP1;P2;durP2;ratioP2
5776;SDS011;2914;42.668;23.346;2022-12-07T00:01:52;44.10;;;19.00;;
5776;SDS011;2914;42.668;23.346;2022-12-07T00:04:22;41.87;;;18.20;;
5776;SDS011;2914;42.668;23.346;2022-12-07T00:06:51;34.60;;;17.77;;
5776;SDS011;2914;42.668;23.346;2022-12-07T00:09:21;39.23;;;17.53;;
5776;SDS011;2914;42.668;23.346;2022-12-07T00:11:51;37.97;;;16.47;;
5776;SDS011;2914;42.668;23.346;2022-12-07T00:14:20;36.73;;;18.30;;
5776;SDS011;2914;42.668;23.346;2022-12-07T00:16:49;47.93;;;19.40;;
5776;SDS011;2914;42.668;23.346;2022-12-07T00:22:08;51.93;;;19.20;;
5776;SDS011;2914;42.668;23.346;2022-12-07T00:24:38;55.63;;;20.90;;
5776;SDS011;2914;42.668;23.346;2022-12-07T00:27:07;47.03;;;19.60;;
5776;SDS011;2914;42.668;23.346;2022-12-07T00:29:45;42.23;;;19.10;;
5776;SDS011;2914;42.668;23.346;2022-12-07T00:32:14;35.67;;;18.93;;
5776;SDS011;2914;42.668;23.346;2022-12-07T00:34:46;54.77;;;18.83;;
5776;SDS011;2914;42.668;23.346;2022-12-07T00:37:32;39.20;;;19.63;;
5776;SDS011;2914;42.668;23.346;2022-12-07T00:40:02;39.10;;;19.37;;
5776;SDS011;2914;42.668;23.346;2022-12-07T00:42:33;48.33;;;19.77;;
5776;SDS011;2914;42.668;23.346;2022-12-07T00:45:03;39.10;;;18.83;;
5776;SDS011;2914;42.668;23.346;2022-12-07T00:47:33;40.30;;;19.13;;
5776;SDS011;2914;42.668;23.346;2022-12-07T00:50:04;37.77;;;19.40;;
5776;SDS011;2914;42.668;23.346;2022-12-07T00:52:34;41.20;;;19.97;;
5776;SDS011;2914;42.668;23.346;2022-12-07T00:55:04;49.30;;;18.67;;
5776;SDS011;2914;42.668;23.346;2022-12-07T00:57:34;42.63;;;19.17;;
5776;SDS011;2914;42.668;23.346;2022-12-07T01:00:03;46.23;;;19.03;;
5776;SDS011;2914;42.668;23.346;2022-12-07T01:02:34;34.67;;;18.70;;
5776;SDS011;2914;42.668;23.346;2022-12-07T01:05:04;36.90;;;19.40;;
5776;SDS011;2914;42.668;23.346;2022-12-07T01:07:34;48.37;;;20.73;;
5776;SDS011;2914;42.668;23.346;2022-12-07T01:10:05;48.57;;;19.20;;
5776;SDS011;2914;42.668;23.346;2022-12-07T01:12:43;40.90;;;19.67;;
5776;SDS011;2914;42.668;23.346;2022-12-07T01:15:12;36.83;;;18.40;;
5776;SDS011;2914;42.668;23.346;2022-12-07T01:17:41;32.40;;;16.83;;
5776;SDS011;2914;42.668;23.346;2022-12-07T01:20:12;38.17;;;18.90;;
5776;SDS011;2914;42.668;23.346;2022-12-07T01:22:42;43.73;;;18.67;;
5776;SDS011;2914;42.668;23.346;2022-12-07T01:25:12;32.53;;;18.10;;
5776;SDS011;2914;42.668;23.346;2022-12-07T01:27:42;42.87;;;19.77;;
5776;SDS011;2914;42.668;23.346;2022-12-07T01:30:12;43.83;;;19.37;;
5776;SDS011;2914;42.668;23.346;2022-12-07T01:32:43;40.17;;;20.27;;
5776;SDS011;2914;42.668;23.346;2022-12-07T01:35:12;41.63;;;18.27;;
5776;SDS011;2914;42.668;23.346;2022-12-07T01:37:41;49.17;;;18.83;;
5776;SDS011;2914;42.668;23.346;2022-12-07T01:40:11;42.57;;;18.33;;
5776;SDS011;2914;42.668;23.346;2022-12-07T01:42:42;42.30;;;18.57;;
5776;SDS011;2914;42.668;23.346;2022-12-07T01:48:18;38.07;;;16.83;;
5776;SDS011;2914;42.668;23.346;2022-12-07T01:50:50;43.70;;;18.70;;
5776;SDS011;2914;42.668;23.346;2022-12-07T01:53:23;47.20;;;19.73;;
5776;SDS011;2914;42.668;23.346;2022-12-07T01:55:54;53.33;;;20.50;;
5776;SDS011;2914;42.668;23.346;2022-12-07T01:58:25;46.70;;;20.97;;
5776;SDS011;2914;42.668;23.346;2022-12-07T02:00:56;46.93;;;18.80;;
5776;SDS011;2914;42.668;23.346;2022-12-07T02:03:27;47.63;;;20.60;;
5776;SDS011;2914;42.668;23.346;2022-12-07T02:06:15;41.83;;;19.53;;
5776;SDS011;2914;42.668;23.346;2022-12-07T02:08:46;39.97;;;20.70;;
5776;SDS011;2914;42.668;23.346;2022-12-07T02:11:24;40.27;;;20.40;;
5776;SDS011;2914;42.668;23.346;2022-12-07T02:13:54;37.50;;;18.70;;
5776;SDS011;2914;42.668;23.346;2022-12-07T02:16:27;40.53;;;19.43;;
5776;SDS011;2914;42.668;23.346;2022-12-07T02:19:15;49.10;;;20.07;;
5776;SDS011;2914;42.668;23.346;2022-12-07T02:21:55;39.10;;;18.03;;
5776;SDS011;2914;42.668;23.346;2022-12-07T02:24:41;49.70;;;22.37;;
5776;SDS011;2914;42.668;23.346;2022-12-07T02:27:19;41.77;;;21.33;;
5776;SDS011;2914;42.668;23.346;2022-12-07T02:30:17;39.80;;;19.27;;
5776;SDS011;2914;42.668;23.346;2022-12-07T02:32:51;39.27;;;20.87;;
5776;SDS011;2914;42.668;23.346;2022-12-07T02:35:30;48.13;;;21.63;;
5776;SDS011;2914;42.668;23.346;2022-12-07T02:38:07;49.70;;;22.80;;
5776;SDS011;2914;42.668;23.346;2022-12-07T02:40:38;45.87;;;22.40;;
5776;SDS011;2914;42.668;23.346;2022-12-07T02:43:10;42.53;;;21.17;;
5776;SDS011;2914;42.668;23.346;2022-12-07T02:45:41;42.90;;;22.10;;
5776;SDS011;2914;42.668;23.346;2022-12-07T02:48:14;48.60;;;24.23;;
5776;SDS011;2914;42.668;23.346;2022-12-07T02:50:47;66.53;;;25.63;;
5776;SDS011;2914;42.668;23.346;2022-12-07T02:53:30;49.93;;;22.63;;
5776;SDS011;2914;42.668;23.346;2022-12-07T02:56:02;55.50;;;24.60;;
5776;SDS011;2914;42.668;23.346;2022-12-07T02:58:38;52.30;;;24.90;;
5776;SDS011;2914;42.668;23.346;2022-12-07T03:01:14;50.17;;;23.57;;
5776;SDS011;2914;42.668;23.346;2022-12-07T03:03:44;52.23;;;24.07;;
5776;SDS011;2914;42.668;23.346;2022-12-07T03:06:24;63.77;;;23.60;;
5776;SDS011;2914;42.668;23.346;2022-12-07T03:08:56;51.37;;;24.40;;
5776;SDS011;2914;42.668;23.346;2022-12-07T03:11:29;58.73;;;26.40;;
5776;SDS011;2914;42.668;23.346;2022-12-07T03:14:13;62.10;;;26.50;;
5776;SDS011;2914;42.668;23.346;2022-12-07T03:16:47;56.20;;;27.00;;
5776;SDS011;2914;42.668;23.346;2022-12-07T03:19:25;50.00;;;24.90;;
5776;SDS011;2914;42.668;23.346;2022-12-07T03:21:57;60.67;;;26.13;;
5776;SDS011;2914;42.668;23.346;2022-12-07T03:24:29;67.13;;;27.50;;
5776;SDS011;2914;42.668;23.346;2022-12-07T03:27:01;50.57;;;26.17;;
5776;SDS011;2914;42.668;23.346;2022-12-07T03:29:32;55.17;;;25.57;;
5776;SDS011;2914;42.668;23.346;2022-12-07T03:32:04;49.53;;;24.33;;
5776;SDS011;2914;42.668;23.346;2022-12-07T03:34:36;56.77;;;23.77;;
5776;SDS011;2914;42.668;23.346;2022-12-07T03:37:09;57.97;;;24.03;;
5776;SDS011;2914;42.668;23.346;2022-12-07T03:39:41;50.90;;;24.20;;
5776;SDS011;2914;42.668;23.346;2022-12-07T03:42:13;50.73;;;23.23;;
5776;SDS011;2914;42.668;23.346;2022-12-07T03:44:45;54.53;;;27.13;;
5776;SDS011;2914;42.668;23.346;2022-12-07T03:47:17;62.13;;;26.73;;
5776;SDS011;2914;42.668;23.346;2022-12-07T03:49:50;62.30;;;28.97;;
5776;SDS011;2914;42.668;23.346;2022-12-07T03:52:22;53.57;;;25.40;;
5776;SDS011;2914;42.668;23.346;2022-12-07T03:54:53;54.57;;;25.23;;
5776;SDS011;2914;42.668;23.346;2022-12-07T03:57:25;68.47;;;25.87;;
5776;SDS011;2914;42.668;23.346;2022-12-07T03:59:58;54.50;;;26.07;;
5776;SDS011;2914;42.668;23.346;2022-12-07T04:02:27;65.90;;;24.87;;
5776;SDS011;2914;42.668;23.346;2022-12-07T04:04:57;52.97;;;24.23;;
5776;SDS011;2914;42.668;23.346;2022-12-07T04:07:26;52.93;;;24.07;;
5776;SDS011;2914;42.668;23.346;2022-12-07T04:09:56;48.27;;;21.57;;
5776;SDS011;2914;42.668;23.346;2022-12-07T04:12:25;44.47;;;21.23;;
5776;SDS011;2914;42.668;23.346;2022-12-07T04:14:55;53.03;;;21.80;;
5776;SDS011;2914;42.668;23.346;2022-12-07T04:17:27;46.70;;;20.93;;
5776;SDS011;2914;42.668;23.346;2022-12-07T04:19:56;36.90;;;19.50;;
5776;SDS011;2914;42.668;23.346;2022-12-07T04:22:26;49.53;;;21.43;;
5776;SDS011;2914;42.668;23.346;2022-12-07T04:24:55;44.60;;;21.87;;
5776;SDS011;2914;42.668;23.346;2022-12-07T04:27:24;50.40;;;22.27;;
5776;SDS011;2914;42.668;23.346;2022-12-07T04:29:53;49.03;;;22.60;;
5776;SDS011;2914;42.668;23.346;2022-12-07T04:32:22;153.40;;;64.00;;
5776;SDS011;2914;42.668;23.346;2022-12-07T04:35:00;132.17;;;51.77;;
5776;SDS011;2914;42.668;23.346;2022-12-07T04:37:29;96.40;;;41.03;;
5776;SDS011;2914;42.668;23.346;2022-12-07T04:40:00;201.50;;;92.40;;
5776;SDS011;2914;42.668;23.346;2022-12-07T04:42:29;64.03;;;29.53;;
5776;SDS011;2914;42.668;23.346;2022-12-07T04:45:01;94.43;;;40.97;;
5776;SDS011;2914;42.668;23.346;2022-12-07T04:47:30;60.90;;;24.70;;
5776;SDS011;2914;42.668;23.346;2022-12-07T04:49:59;60.97;;;23.60;;
5776;SDS011;2914;42.668;23.346;2022-12-07T04:52:28;40.30;;;19.80;;
5776;SDS011;2914;42.668;23.346;2022-12-07T04:54:57;45.20;;;19.80;;
5776;SDS011;2914;42.668;23.346;2022-12-07T04:57:27;50.13;;;20.47;;
5776;SDS011;2914;42.668;23.346;2022-12-07T05:00:17;41.73;;;18.23;;
5776;SDS011;2914;42.668;23.346;2022-12-07T05:02:47;51.97;;;20.30;;
5776;SDS011;2914;42.668;23.346;2022-12-07T05:05:16;46.53;;;20.73;;
5776;SDS011;2914;42.668;23.346;2022-12-07T05:07:45;47.53;;;19.77;;
5776;SDS011;2914;42.668;23.346;2022-12-07T05:10:14;61.67;;;20.20;;
5776;SDS011;2914;42.668;23.346;2022-12-07T05:12:43;44.60;;;19.30;;
5776;SDS011;2914;42.668;23.346;2022-12-07T05:15:13;43.60;;;19.80;;
5776;SDS011;2914;42.668;23.346;2022-12-07T05:17:43;41.43;;;18.77;;
5776;SDS011;2914;42.668;23.346;2022-12-07T05:20:12;57.30;;;21.40;;
5776;SDS011;2914;42.668;23.346;2022-12-07T05:25:17;46.77;;;19.50;;
5776;SDS011;2914;42.668;23.346;2022-12-07T05:27:46;36.43;;;18.57;;
5776;SDS011;2914;42.668;23.346;2022-12-07T05:30:17;49.13;;;18.80;;
5776;SDS011;2914;42.668;23.346;2022-12-07T05:33:01;52.67;;;20.17;;
5776;SDS011;2914;42.668;23.346;2022-12-07T05:35:31;44.03;;;18.80;;
5776;SDS011;2914;42.668;23.346;2022-12-07T05:38:01;36.13;;;18.17;;
5776;SDS011;2914;42.668;23.346;2022-12-07T05:40:30;48.60;;;19.30;;
5776;SDS011;2914;42.668;23.346;2022-12-07T05:42:59;45.20;;;19.13;;
5776;SDS011;2914;42.668;23.346;2022-12-07T05:45:28;43.90;;;19.27;;
5776;SDS011;2914;42.668;23.346;2022-12-07T05:47:57;49.70;;;20.13;;
5776;SDS011;2914;42.668;23.346;2022-12-07T05:50:35;43.70;;;20.70;;
5776;SDS011;2914;42.668;23.346;2022-12-07T05:53:04;36.30;;;18.77;;
5776;SDS011;2914;42.668;23.346;2022-12-07T05:55:33;45.43;;;19.90;;
5776;SDS011;2914;42.668;23.346;2022-12-07T05:58:02;44.83;;;19.23;;
5776;SDS011;2914;42.668;23.346;2022-12-07T06:01:02;43.60;;;19.60;;
5776;SDS011;2914;42.668;23.346;2022-12-07T06:03:31;38.07;;;18.50;;
5776;SDS011;2914;42.668;23.346;2022-12-07T06:06:00;53.40;;;21.33;;
5776;SDS011;2914;42.668;23.346;2022-12-07T06:08:30;48.20;;;20.40;;
5776;SDS011;2914;42.668;23.346;2022-12-07T06:11:07;46.07;;;20.10;;
5776;SDS011;2914;42.668;23.346;2022-12-07T06:13:54;43.77;;;19.90;;
5776;SDS011;2914;42.668;23.346;2022-12-07T06:16:23;44.17;;;20.00;;
5776;SDS011;2914;42.668;23.346;2022-12-07T06:18:52;43.17;;;19.83;;
5776;SDS011;2914;42.668;23.346;2022-12-07T06:21:21;51.57;;;20.03;;
5776;SDS011;2914;42.668;23.346;2022-12-07T06:23:51;62.60;;;21.50;;
5776;SDS011;2914;42.668;23.346;2022-12-07T06:27:18;48.07;;;24.10;;
5776;SDS011;2914;42.668;23.346;2022-12-07T06:29:47;43.60;;;19.63;;
5776;SDS011;2914;42.668;23.346;2022-12-07T06:32:16;45.83;;;20.30;;
5776;SDS011;2914;42.668;23.346;2022-12-07T06:34:45;38.23;;;19.83;;
5776;SDS011;2914;42.668;23.346;2022-12-07T06:37:14;46.37;;;20.70;;
5776;SDS011;2914;42.668;23.346;2022-12-07T06:39:43;59.50;;;20.40;;
5776;SDS011;2914;42.668;23.346;2022-12-07T06:42:12;51.27;;;20.33;;
5776;SDS011;2914;42.668;23.346;2022-12-07T06:44:41;46.03;;;20.17;;
5776;SDS011;2914;42.668;23.346;2022-12-07T06:47:10;41.63;;;18.13;;
5776;SDS011;2914;42.668;23.346;2022-12-07T06:49:48;42.70;;;19.03;;
5776;SDS011;2914;42.668;23.346;2022-12-07T06:52:17;47.93;;;19.90;;
5776;SDS011;2914;42.668;23.346;2022-12-07T06:54:46;53.23;;;20.70;;
5776;SDS011;2914;42.668;23.346;2022-12-07T06:57:15;48.47;;;22.00;;
5776;SDS011;2914;42.668;23.346;2022-12-07T06:59:59;45.70;;;20.93;;
5776;SDS011;2914;42.668;23.346;2022-12-07T07:02:28;58.47;;;24.47;;
5776;SDS011;2914;42.668;23.346;2022-12-07T07:04:57;60.20;;;24.30;;
5776;SDS011;2914;42.668;23.346;2022-12-07T07:07:26;49.70;;;23.90;;
5776;SDS011;2914;42.668;23.346;2022-12-07T07:10:05;47.17;;;21.97;;
5776;SDS011;2914;42.668;23.346;2022-12-07T07:12:35;57.23;;;23.87;;
5776;SDS011;2914;42.668;23.346;2022-12-07T07:15:07;50.47;;;22.30;;
5776;SDS011;2914;42.668;23.346;2022-12-07T07:17:38;67.07;;;23.37;;
5776;SDS011;2914;42.668;23.346;2022-12-07T07:20:08;64.83;;;21.47;;
5776;SDS011;2914;42.668;23.346;2022-12-07T07:22:38;67.33;;;25.57;;
5776;SDS011;2914;42.668;23.346;2022-12-07T07:25:16;54.37;;;23.20;;
5776;SDS011;2914;42.668;23.346;2022-12-07T07:27:45;68.53;;;23.80;;
5776;SDS011;2914;42.668;23.346;2022-12-07T07:30:15;51.47;;;23.50;;
5776;SDS011;2914;42.668;23.346;2022-12-07T07:32:44;68.77;;;23.17;;
5776;SDS011;2914;42.668;23.346;2022-12-07T07:35:40;66.70;;;23.20;;
5776;SDS011;2914;42.668;23.346;2022-12-07T07:38:09;63.30;;;21.53;;
5776;SDS011;2914;42.668;23.346;2022-12-07T07:40:38;61.40;;;23.10;;
5776;SDS011;2914;42.668;23.346;2022-12-07T07:43:07;74.47;;;25.80;;
5776;SDS011;2914;42.668;23.346;2022-12-07T07:45:36;55.30;;;24.20;;
5776;SDS011;2914;42.668;23.346;2022-12-07T07:48:06;68.23;;;25.53;;
5776;SDS011;2914;42.668;23.346;2022-12-07T07:50:35;61.00;;;26.30;;
5776;SDS011;2914;42.668;23.346;2022-12-07T07:53:05;56.80;;;24.27;;
5776;SDS011;2914;42.668;23.346;2022-12-07T07:55:34;60.67;;;24.53;;
5776;SDS011;2914;42.668;23.346;2022-12-07T07:58:06;46.00;;;22.10;;
5776;SDS011;2914;42.668;23.346;2022-12-07T08:00:36;56.60;;;23.00;;
5776;SDS011;2914;42.668;23.346;2022-12-07T08:03:05;47.53;;;22.83;;
5776;SDS011;2914;42.668;23.346;2022-12-07T08:05:34;51.50;;;23.90;;
5776;SDS011;2914;42.668;23.346;2022-12-07T08:08:04;48.60;;;21.83;;
5776;SDS011;2914;42.668;23.346;2022-12-07T08:10:33;49.40;;;22.00;;
5776;SDS011;2914;42.668;23.346;2022-12-07T08:13:11;46.90;;;20.77;;
5776;SDS011;2914;42.668;23.346;2022-12-07T08:15:42;47.73;;;20.83;;
5776;SDS011;2914;42.668;23.346;2022-12-07T08:18:13;45.97;;;21.40;;
5776;SDS011;2914;42.668;23.346;2022-12-07T08:20:43;47.90;;;20.83;;
5776;SDS011;2914;42.668;23.346;2022-12-07T08:23:12;44.73;;;21.40;;
5776;SDS011;2914;42.668;23.346;2022-12-07T08:25:41;48.47;;;21.20;;
5776;SDS011;2914;42.668;23.346;2022-12-07T08:28:11;51.80;;;21.67;;
5776;SDS011;2914;42.668;23.346;2022-12-07T08:30:40;54.20;;;22.33;;
5776;SDS011;2914;42.668;23.346;2022-12-07T08:33:09;46.47;;;22.07;;
5776;SDS011;2914;42.668;23.346;2022-12-07T08:35:39;59.63;;;22.10;;
5776;SDS011;2914;42.668;23.346;2022-12-07T08:38:08;54.00;;;23.23;;
5776;SDS011;2914;42.668;23.346;2022-12-07T08:40:37;48.97;;;20.63;;
5776;SDS011;2914;42.668;23.346;2022-12-07T08:43:06;47.73;;;21.90;;
5776;SDS011;2914;42.668;23.346;2022-12-07T08:45:36;44.20;;;21.07;;
5776;SDS011;2914;42.668;23.346;2022-12-07T08:48:09;71.57;;;20.87;;
5776;SDS011;2914;42.668;23.346;2022-12-07T08:50:40;62.53;;;23.27;;
5776;SDS011;2914;42.668;23.346;2022-12-07T08:53:09;55.10;;;22.00;;
5776;SDS011;2914;42.668;23.346;2022-12-07T08:55:38;62.77;;;24.00;;
5776;SDS011;2914;42.668;23.346;2022-12-07T08:58:07;51.17;;;22.20;;
5776;SDS011;2914;42.668;23.346;2022-12-07T09:00:45;48.40;;;20.93;;
5776;SDS011;2914;42.668;23.346;2022-12-07T09:03:14;64.60;;;21.70;;
5776;SDS011;2914;42.668;23.346;2022-12-07T09:05:44;46.67;;;22.37;;
5776;SDS011;2914;42.668;23.346;2022-12-07T09:08:29;52.77;;;22.67;;
5776;SDS011;2914;42.668;23.346;2022-12-07T09:11:01;61.47;;;24.53;;
5776;SDS011;2914;42.668;23.346;2022-12-07T09:13:38;56.90;;;21.90;;
5776;SDS011;2914;42.668;23.346;2022-12-07T09:16:07;62.20;;;24.87;;
5776;SDS011;2914;42.668;23.346;2022-12-07T09:18:36;45.50;;;24.60;;
5776;SDS011;2914;42.668;23.346;2022-12-07T09:21:06;60.07;;;25.17;;
5776;SDS011;2914;42.668;23.346;2022-12-07T09:23:35;62.17;;;27.20;;
5776;SDS011;2914;42.668;23.346;2022-12-07T09:26:04;54.17;;;25.33;;
5776;SDS011;2914;42.668;23.346;2022-12-07T09:28:33;71.30;;;29.07;;
5776;SDS011;2914;42.668;23.346;2022-12-07T09:31:02;74.27;;;30.00;;
5776;SDS011;2914;42.668;23.346;2022-12-07T09:33:32;65.90;;;29.17;;
5776;SDS011;2914;42.668;23.346;2022-12-07T09:36:01;57.30;;;28.30;;
5776;SDS011;2914;42.668;23.346;2022-12-07T09:38:32;78.47;;;31.97;;
5776;SDS011;2914;42.668;23.346;2022-12-07T09:41:04;68.53;;;28.27;;
5776;SDS011;2914;42.668;23.346;2022-12-07T09:43:35;73.30;;;31.20;;
5776;SDS011;2914;42.668;23.346;2022-12-07T09:46:08;74.50;;;29.40;;
5776;SDS011;2914;42.668;23.346;2022-12-07T09:48:39;71.67;;;29.70;;
5776;SDS011;2914;42.668;23.346;2022-12-07T09:51:13;79.93;;;30.70;;
5776;SDS011;2914;42.668;23.346;2022-12-07T09:53:59;77.13;;;31.93;;
5776;SDS011;2914;42.668;23.346;2022-12-07T09:56:29;66.53;;;30.20;;
5776;SDS011;2914;42.668;23.346;2022-12-07T09:58:59;74.37;;;30.07;;
5776;SDS011;2914;42.668;23.346;2022-12-07T10:01:30;59.83;;;27.10;;
5776;SDS011;2914;42.668;23.346;2022-12-07T10:04:02;61.33;;;28.87;;
5776;SDS011;2914;42.668;23.346;2022-12-07T10:06:49;69.10;;;29.60;;
5776;SDS011;2914;42.668;23.346;2022-12-07T10:12:05;61.40;;;29.00;;
5776;SDS011;2914;42.668;23.346;2022-12-07T10:14:36;65.87;;;27.87;;
5776;SDS011;2914;42.668;23.346;2022-12-07T10:17:26;65.33;;;29.17;;
5776;SDS011;2914;42.668;23.346;2022-12-07T10:20:14;63.37;;;27.03;;
5776;SDS011;2914;42.668;23.346;2022-12-07T10:22:54;66.77;;;29.97;;
5776;SDS011;2914;42.668;23.346;2022-12-07T10:25:27;64.87;;;29.00;;
5776;SDS011;2914;42.668;23.346;2022-12-07T10:28:00;56.67;;;28.00;;
5776;SDS011;2914;42.668;23.346;2022-12-07T10:30:32;66.03;;;29.30;;
5776;SDS011;2914;42.668;23.346;2022-12-07T10:33:03;64.00;;;27.90;;
5776;SDS011;2914;42.668;23.346;2022-12-07T10:35:36;60.70;;;28.87;;
5776;SDS011;2914;42.668;23.346;2022-12-07T10:38:14;73.80;;;28.90;;
5776;SDS011;2914;42.668;23.346;2022-12-07T10:41:04;59.03;;;27.60;;
5776;SDS011;2914;42.668;23.346;2022-12-07T10:43:35;75.93;;;27.07;;
5776;SDS011;2914;42.668;23.346;2022-12-07T10:46:17;54.30;;;26.10;;
5776;SDS011;2914;42.668;23.346;2022-12-07T10:49:08;48.50;;;24.87;;
5776;SDS011;2914;42.668;23.346;2022-12-07T10:51:57;56.67;;;25.87;;
5776;SDS011;2914;42.668;23.346;2022-12-07T10:54:37;52.27;;;25.00;;
5776;SDS011;2914;42.668;23.346;2022-12-07T10:57:16;52.50;;;25.43;;
5776;SDS011;2914;42.668;23.346;2022-12-07T11:00:02;67.03;;;24.60;;
5776;SDS011;2914;42.668;23.346;2022-12-07T11:02:45;63.17;;;26.60;;
5776;SDS011;2914;42.668;23.346;2022-12-07T11:05:21;58.97;;;27.33;;
5776;SDS011;2914;42.668;23.346;2022-12-07T11:07:57;56.07;;;26.37;;
5776;SDS011;2914;42.668;23.346;2022-12-07T11:10:32;54.20;;;23.67;;
5776;SDS011;2914;42.668;23.346;2022-12-07T11:13:23;53.70;;;25.07;;
5776;SDS011;2914;42.668;23.346;2022-12-07T11:16:03;55.13;;;25.70;;
5776;SDS011;2914;42.668;23.346;2022-12-07T11:18:41;56.53;;;25.80;;
5776;SDS011;2914;42.668;23.346;2022-12-07T11:21:15;50.10;;;25.47;;
5776;SDS011;2914;42.668;23.346;2022-12-07T11:23:48;63.53;;;25.80;;
5776;SDS011;2914;42.668;23.346;2022-12-07T11:26:21;51.17;;;23.00;;
5776;SDS011;2914;42.668;23.346;2022-12-07T11:29:05;53.63;;;22.53;;
5776;SDS011;2914;42.668;23.346;2022-12-07T11:32:04;46.63;;;21.40;;
5776;SDS011;2914;42.668;23.346;2022-12-07T11:34:37;40.90;;;20.20;;
5776;SDS011;2914;42.668;23.346;2022-12-07T11:37:12;49.73;;;21.97;;
5776;SDS011;2914;42.668;23.346;2022-12-07T11:39:44;47.57;;;22.40;;
5776;SDS011;2914;42.668;23.346;2022-12-07T11:42:18;49.20;;;23.43;;
5776;SDS011;2914;42.668;23.346;2022-12-07T11:45:10;55.17;;;23.73;;
5776;SDS011;2914;42.668;23.346;2022-12-07T11:47:40;35.30;;;20.07;;
5776;SDS011;2914;42.668;23.346;2022-12-07T11:50:23;44.87;;;20.33;;
5776;SDS011;2914;42.668;23.346;2022-12-07T11:52:58;56.33;;;21.73;;
5776;SDS011;2914;42.668;23.346;2022-12-07T11:55:36;49.63;;;22.17;;
5776;SDS011;2914;42.668;23.346;2022-12-07T11:58:09;54.73;;;21.50;;
5776;SDS011;2914;42.668;23.346;2022-12-07T12:00:39;41.90;;;19.40;;
5776;SDS011;2914;42.668;23.346;2022-12-07T12:03:10;38.30;;;19.40;;
5776;SDS011;2914;42.668;23.346;2022-12-07T12:08:20;46.33;;;19.53;;
5776;SDS011;2914;42.668;23.346;2022-12-07T12:10:54;57.63;;;18.60;;
5776;SDS011;2914;42.668;23.346;2022-12-07T12:13:37;39.77;;;18.00;;
5776;SDS011;2914;42.668;23.346;2022-12-07T12:16:35;49.77;;;19.10;;
5776;SDS011;2914;42.668;23.346;2022-12-07T12:19:32;37.73;;;17.90;;
5776;SDS011;2914;42.668;23.346;2022-12-07T12:22:06;42.00;;;16.77;;
5776;SDS011;2914;42.668;23.346;2022-12-07T12:24:40;47.60;;;17.27;;
5776;SDS011;2914;42.668;23.346;2022-12-07T12:27:16;43.30;;;18.23;;
5776;SDS011;2914;42.668;23.346;2022-12-07T12:29:55;36.83;;;15.83;;
5776;SDS011;2914;42.668;23.346;2022-12-07T12:32:30;34.70;;;14.47;;
5776;SDS011;2914;42.668;23.346;2022-12-07T12:35:29;38.67;;;15.60;;
5776;SDS011;2914;42.668;23.346;2022-12-07T12:40:59;30.87;;;14.57;;
5776;SDS011;2914;42.668;23.346;2022-12-07T12:43:43;36.47;;;13.90;;
5776;SDS011;2914;42.668;23.346;2022-12-07T12:58:39;34.00;;;14.50;;
5776;SDS011;2914;42.668;23.346;2022-12-07T13:10:21;32.83;;;13.57;;
5776;SDS011;2914;42.668;23.346;2022-12-07T13:16:37;35.00;;;13.70;;
5776;SDS011;2914;42.668;23.346;2022-12-07T13:22:47;31.40;;;16.93;;
5776;SDS011;2914;42.668;23.346;2022-12-07T13:25:21;25.40;;;14.00;;
5776;SDS011;2914;42.668;23.346;2022-12-07T13:28:03;25.43;;;12.97;;
5776;SDS011;2914;42.668;23.346;2022-12-07T13:30:42;36.57;;;13.60;;
5776;SDS011;2914;42.668;23.346;2022-12-07T13:33:14;26.50;;;14.27;;
5776;SDS011;2914;42.668;23.346;2022-12-07T13:35:46;37.23;;;15.00;;
5776;SDS011;2914;42.668;23.346;2022-12-07T13:38:22;45.20;;;16.80;;
5776;SDS011;2914;42.668;23.346;2022-12-07T13:41:00;33.90;;;15.43;;
5776;SDS011;2914;42.668;23.346;2022-12-07T13:43:42;38.87;;;16.60;;
5776;SDS011;2914;42.668;23.346;2022-12-07T13:46:13;29.20;;;14.63;;
5776;SDS011;2914;42.668;23.346;2022-12-07T13:48:44;40.93;;;16.20;;
5776;SDS011;2914;42.668;23.346;2022-12-07T13:51:17;30.00;;;13.80;;
5776;SDS011;2914;42.668;23.346;2022-12-07T13:53:49;28.83;;;13.33;;
5776;SDS011;2914;42.668;23.346;2022-12-07T13:56:21;37.47;;;14.80;;
5776;SDS011;2914;42.668;23.346;2022-12-07T13:58:52;32.77;;;14.70;;
5776;SDS011;2914;42.668;23.346;2022-12-07T14:01:22;32.77;;;14.07;;
5776;SDS011;2914;42.668;23.346;2022-12-07T14:03:52;45.10;;;15.00;;
5776;SDS011;2914;42.668;23.346;2022-12-07T14:06:25;38.63;;;14.60;;
5776;SDS011;2914;42.668;23.346;2022-12-07T14:09:09;40.50;;;15.77;;
5776;SDS011;2914;42.668;23.346;2022-12-07T14:11:45;31.90;;;15.10;;
5776;SDS011;2914;42.668;23.346;2022-12-07T14:14:17;30.70;;;14.90;;
5776;SDS011;2914;42.668;23.346;2022-12-07T14:16:58;37.80;;;15.17;;
5776;SDS011;2914;42.668;23.346;2022-12-07T14:19:40;47.60;;;14.23;;
5776;SDS011;2914;42.668;23.346;2022-12-07T14:22:18;38.83;;;14.73;;
5776;SDS011;2914;42.668;23.346;2022-12-07T14:25:00;30.27;;;14.67;;
5776;SDS011;2914;42.668;23.346;2022-12-07T14:27:38;41.80;;;15.77;;
5776;SDS011;2914;42.668;23.346;2022-12-07T14:30:16;40.83;;;16.17;;
5776;SDS011;2914;42.668;23.346;2022-12-07T14:32:47;47.33;;;16.37;;
5776;SDS011;2914;42.668;23.346;2022-12-07T14:35:18;48.13;;;16.93;;
5776;SDS011;2914;42.668;23.346;2022-12-07T14:37:48;38.27;;;16.43;;
5776;SDS011;2914;42.668;23.346;2022-12-07T14:40:19;35.27;;;16.10;;
5776;SDS011;2914;42.668;23.346;2022-12-07T14:42:50;40.80;;;16.00;;
5776;SDS011;2914;42.668;23.346;2022-12-07T14:45:22;35.37;;;15.70;;
5776;SDS011;2914;42.668;23.346;2022-12-07T14:47:51;37.30;;;15.77;;
5776;SDS011;2914;42.668;23.346;2022-12-07T14:50:22;32.33;;;14.27;;
5776;SDS011;2914;42.668;23.346;2022-12-07T14:52:53;48.13;;;15.70;;
5776;SDS011;2914;42.668;23.346;2022-12-07T14:55:36;34.63;;;16.07;;
5776;SDS011;2914;42.668;23.346;2022-12-07T14:58:06;38.67;;;15.03;;
5776;SDS011;2914;42.668;23.346;2022-12-07T15:00:37;35.10;;;15.63;;
5776;SDS011;2914;42.668;23.346;2022-12-07T15:03:09;32.87;;;14.97;;
5776;SDS011;2914;42.668;23.346;2022-12-07T15:05:40;51.03;;;16.80;;
5776;SDS011;2914;42.668;23.346;2022-12-07T15:08:10;37.27;;;14.43;;
5776;SDS011;2914;42.668;23.346;2022-12-07T15:10:41;36.93;;;15.93;;
5776;SDS011;2914;42.668;23.346;2022-12-07T15:13:11;44.20;;;15.30;;
5776;SDS011;2914;42.668;23.346;2022-12-07T15:15:59;41.57;;;14.87;;
5776;SDS011;2914;42.668;23.346;2022-12-07T15:18:28;39.67;;;14.70;;
5776;SDS011;2914;42.668;23.346;2022-12-07T15:20:57;44.13;;;16.90;;
5776;SDS011;2914;42.668;23.346;2022-12-07T15:23:35;31.07;;;15.30;;
5776;SDS011;2914;42.668;23.346;2022-12-07T15:26:04;28.93;;;13.80;;
5776;SDS011;2914;42.668;23.346;2022-12-07T15:28:34;43.27;;;16.23;;
5776;SDS011;2914;42.668;23.346;2022-12-07T15:31:03;29.47;;;15.77;;
5776;SDS011;2914;42.668;23.346;2022-12-07T15:33:34;33.67;;;15.70;;
5776;SDS011;2914;42.668;23.346;2022-12-07T15:36:03;35.70;;;15.57;;
5776;SDS011;2914;42.668;23.346;2022-12-07T15:39:03;32.87;;;15.80;;
5776;SDS011;2914;42.668;23.346;2022-12-07T15:41:33;30.33;;;14.73;;
5776;SDS011;2914;42.668;23.346;2022-12-07T15:44:04;29.27;;;14.93;;
5776;SDS011;2914;42.668;23.346;2022-12-07T15:46:51;41.00;;;17.87;;
5776;SDS011;2914;42.668;23.346;2022-12-07T15:49:22;53.27;;;19.73;;
5776;SDS011;2914;42.668;23.346;2022-12-07T15:51:51;38.07;;;17.40;;
5776;SDS011;2914;42.668;23.346;2022-12-07T15:54:22;47.77;;;20.10;;
5776;SDS011;2914;42.668;23.346;2022-12-07T15:56:52;47.03;;;20.90;;